sensor_id;sensor_type;location;lat;lon;timestamp;temperature;humidity
14401;DHT22;7285;50.894;5.462;2022-12-20T00:00:06;11.80;99.90
14401;DHT22;7285;50.894;5.462;2022-12-20T00:02:33;11.70;99.90
14401;DHT22;7285;50.894;5.462;2022-12-20T00:05:00;11.70;99.90
14401;DHT22;7285;50.894;5.462;2022-12-20T00:07:29;11.60;99.90
14401;DHT22;7285;50.894;5.462;2022-12-20T00:09:56;11.60;99.90
14401;DHT22;7285;50.894;5.462;2022-12-20T00:12:23;11.60;99.90
14401;DHT22;7285;50.894;5.462;2022-12-20T00:14:50;11.60;99.90
14401;DHT22;7285;50.894;5.462;2022-12-20T00:17:17;11.60;99.90
14401;DHT22;7285;50.894;5.462;2022-12-20T00:19:44;11.60;99.90
14401;DHT22;7285;50.894;5.462;2022-12-20T00:22:11;11.60;99.90
14401;DHT22;7285;50.894;5.462;2022-12-20T00:24:39;11.60;99.90
14401;DHT22;7285;50.894;5.462;2022-12-20T00:27:06;11.60;99.90
14401;DHT22;7285;50.894;5.462;2022-12-20T00:29:34;11.60;99.90
14401;DHT22;7285;50.894;5.462;2022-12-20T00:32:00;11.50;99.90
14401;DHT22;7285;50.894;5.462;2022-12-20T00:34:27;11.50;99.90
14401;DHT22;7285;50.894;5.462;2022-12-20T00:36:54;11.50;99.90
14401;DHT22;7285;50.894;5.462;2022-12-20T00:39:21;11.60;99.90
14401;DHT22;7285;50.894;5.462;2022-12-20T00:41:50;11.70;99.90
14401;DHT22;7285;50.894;5.462;2022-12-20T00:44:17;11.70;99.90
14401;DHT22;7285;50.894;5.462;2022-12-20T00:46:44;11.70;99.90
14401;DHT22;7285;50.894;5.462;2022-12-20T00:49:11;11.60;99.90
14401;DHT22;7285;50.894;5.462;2022-12-20T00:51:38;11.70;99.90
14401;DHT22;7285;50.894;5.462;2022-12-20T00:54:05;11.60;99.90
14401;DHT22;7285;50.894;5.462;2022-12-20T00:56:31;11.60;99.90
14401;DHT22;7285;50.894;5.462;2022-12-20T00:59:00;11.60;99.90
14401;DHT22;7285;50.894;5.462;2022-12-20T01:01:29;11.60;99.90
14401;DHT22;7285;50.894;5.462;2022-12-20T01:03:56;11.50;99.90
14401;DHT22;7285;50.894;5.462;2022-12-20T01:06:24;11.50;99.90
14401;DHT22;7285;50.894;5.462;2022-12-20T01:08:51;11.40;99.90
14401;DHT22;7285;50.894;5.462;2022-12-20T01:11:20;11.50;99.90
14401;DHT22;7285;50.894;5.462;2022-12-20T01:13:49;11.50;99.90
14401;DHT22;7285;50.894;5.462;2022-12-20T01:16:21;11.50;99.90
14401;DHT22;7285;50.894;5.462;2022-12-20T01:18:48;11.50;99.90
14401;DHT22;7285;50.894;5.462;2022-12-20T01:21:17;11.60;99.90
14401;DHT22;7285;50.894;5.462;2022-12-20T01:23:45;11.60;99.90
14401;DHT22;7285;50.894;5.462;2022-12-20T01:26:13;11.70;99.90
14401;DHT22;7285;50.894;5.462;2022-12-20T01:28:43;11.70;99.90
14401;DHT22;7285;50.894;5.462;2022-12-20T01:31:13;11.70;99.90
14401;DHT22;7285;50.894;5.462;2022-12-20T01:33:42;11.70;99.90
14401;DHT22;7285;50.894;5.462;2022-12-20T01:36:14;11.80;99.90
14401;DHT22;7285;50.894;5.462;2022-12-20T01:38:41;11.90;99.90
14401;DHT22;7285;50.894;5.462;2022-12-20T01:41:12;11.90;99.90
14401;DHT22;7285;50.894;5.462;2022-12-20T01:43:46;11.80;99.90
14401;DHT22;7285;50.894;5.462;2022-12-20T01:46:13;11.90;99.90
14401;DHT22;7285;50.894;5.462;2022-12-20T01:48:44;11.90;99.90
14401;DHT22;7285;50.894;5.462;2022-12-20T01:51:14;11.90;99.90
14401;DHT22;7285;50.894;5.462;2022-12-20T01:53:41;11.80;99.90
14401;DHT22;7285;50.894;5.462;2022-12-20T01:56:09;11.80;99.90
14401;DHT22;7285;50.894;5.462;2022-12-20T01:58:37;11.80;99.90
14401;DHT22;7285;50.894;5.462;2022-12-20T02:01:05;11.80;99.90
14401;DHT22;7285;50.894;5.462;2022-12-20T02:03:32;11.80;99.90
14401;DHT22;7285;50.894;5.462;2022-12-20T02:06:14;11.70;99.90
14401;DHT22;7285;50.894;5.462;2022-12-20T02:08:41;11.50;1.00
14401;DHT22;7285;50.894;5.462;2022-12-20T02:11:19;11.50;1.00
14401;DHT22;7285;50.894;5.462;2022-12-20T02:13:55;11.40;1.00
14401;DHT22;7285;50.894;5.462;2022-12-20T02:16:29;11.30;1.00
14401;DHT22;7285;50.894;5.462;2022-12-20T02:19:03;11.30;1.00
14401;DHT22;7285;50.894;5.462;2022-12-20T02:21:38;11.20;1.00
14401;DHT22;7285;50.894;5.462;2022-12-20T02:24:27;11.10;64.10
14401;DHT22;7285;50.894;5.462;2022-12-20T02:30:03;10.90;99.90
14401;DHT22;7285;50.894;5.462;2022-12-20T02:32:35;11.00;99.90
14401;DHT22;7285;50.894;5.462;2022-12-20T02:35:07;11.00;99.90
14401;DHT22;7285;50.894;5.462;2022-12-20T02:37:34;11.00;99.90
14401;DHT22;7285;50.894;5.462;2022-12-20T02:40:03;10.90;99.90
14401;DHT22;7285;50.894;5.462;2022-12-20T02:42:31;10.90;99.90
14401;DHT22;7285;50.894;5.462;2022-12-20T02:45:04;11.00;99.90
14401;DHT22;7285;50.894;5.462;2022-12-20T02:47:50;10.90;1.00
14401;DHT22;7285;50.894;5.462;2022-12-20T02:50:20;10.80;1.00
14401;DHT22;7285;50.894;5.462;2022-12-20T02:52:48;10.80;1.00
14401;DHT22;7285;50.894;5.462;2022-12-20T02:55:16;10.80;1.00
14401;DHT22;7285;50.894;5.462;2022-12-20T02:57:47;10.80;1.00
14401;DHT22;7285;50.894;5.462;2022-12-20T03:00:18;10.90;1.00
14401;DHT22;7285;50.894;5.462;2022-12-20T03:02:46;10.80;1.00
14401;DHT22;7285;50.894;5.462;2022-12-20T03:05:33;10.80;1.00
14401;DHT22;7285;50.894;5.462;2022-12-20T03:08:01;10.80;1.00
14401;DHT22;7285;50.894;5.462;2022-12-20T03:10:28;10.90;1.00
14401;DHT22;7285;50.894;5.462;2022-12-20T03:12:55;11.00;99.90
14401;DHT22;7285;50.894;5.462;2022-12-20T03:15:23;10.90;1.00
14401;DHT22;7285;50.894;5.462;2022-12-20T03:17:50;10.90;1.00
14401;DHT22;7285;50.894;5.462;2022-12-20T03:20:17;10.90;1.00
14401;DHT22;7285;50.894;5.462;2022-12-20T03:22:44;10.90;1.00
14401;DHT22;7285;50.894;5.462;2022-12-20T03:25:12;10.90;1.00
14401;DHT22;7285;50.894;5.462;2022-12-20T03:27:39;10.90;1.00
14401;DHT22;7285;50.894;5.462;2022-12-20T03:30:07;10.90;1.00
14401;DHT22;7285;50.894;5.462;2022-12-20T03:32:35;10.80;1.00
14401;DHT22;7285;50.894;5.462;2022-12-20T03:35:03;10.90;1.00
14401;DHT22;7285;50.894;5.462;2022-12-20T03:37:30;10.80;1.00
14401;DHT22;7285;50.894;5.462;2022-12-20T03:39:57;10.80;1.00
14401;DHT22;7285;50.894;5.462;2022-12-20T03:42:24;10.90;1.00
14401;DHT22;7285;50.894;5.462;2022-12-20T03:44:51;10.80;1.00
14401;DHT22;7285;50.894;5.462;2022-12-20T03:47:18;10.80;1.00
14401;DHT22;7285;50.894;5.462;2022-12-20T03:49:46;10.80;9.50
14401;DHT22;7285;50.894;5.462;2022-12-20T03:52:14;10.70;99.90
14401;DHT22;7285;50.894;5.462;2022-12-20T03:54:40;10.60;99.90
14401;DHT22;7285;50.894;5.462;2022-12-20T03:57:07;10.60;99.90
14401;DHT22;7285;50.894;5.462;2022-12-20T03:59:34;10.50;1.00
14401;DHT22;7285;50.894;5.462;2022-12-20T04:02:02;10.50;1.00
14401;DHT22;7285;50.894;5.462;2022-12-20T04:04:29;10.50;1.00
14401;DHT22;7285;50.894;5.462;2022-12-20T04:06:58;10.50;1.00
14401;DHT22;7285;50.894;5.462;2022-12-20T04:09:25;10.50;1.00
14401;DHT22;7285;50.894;5.462;2022-12-20T04:11:52;10.40;1.00
14401;DHT22;7285;50.894;5.462;2022-12-20T04:14:19;10.50;1.00
14401;DHT22;7285;50.894;5.462;2022-12-20T04:16:46;10.40;1.00
14401;DHT22;7285;50.894;5.462;2022-12-20T04:19:12;10.50;1.00
14401;DHT22;7285;50.894;5.462;2022-12-20T04:21:39;10.50;1.00
14401;DHT22;7285;50.894;5.462;2022-12-20T04:24:08;10.50;1.00
14401;DHT22;7285;50.894;5.462;2022-12-20T04:26:35;10.60;99.90
14401;DHT22;7285;50.894;5.462;2022-12-20T04:29:02;10.60;99.90
14401;DHT22;7285;50.894;5.462;2022-12-20T04:31:29;10.60;99.90
14401;DHT22;7285;50.894;5.462;2022-12-20T04:33:56;10.70;1.00
14401;DHT22;7285;50.894;5.462;2022-12-20T04:36:23;10.80;1.00
14401;DHT22;7285;50.894;5.462;2022-12-20T04:38:50;10.80;1.00
14401;DHT22;7285;50.894;5.462;2022-12-20T04:41:19;10.80;1.00
14401;DHT22;7285;50.894;5.462;2022-12-20T04:43:50;10.90;1.00
14401;DHT22;7285;50.894;5.462;2022-12-20T04:46:18;10.90;99.90
14401;DHT22;7285;50.894;5.462;2022-12-20T04:48:45;11.00;99.90
14401;DHT22;7285;50.894;5.462;2022-12-20T04:51:12;10.90;99.90
14401;DHT22;7285;50.894;5.462;2022-12-20T04:53:39;11.00;99.90
14401;DHT22;7285;50.894;5.462;2022-12-20T04:56:20;11.00;99.90
14401;DHT22;7285;50.894;5.462;2022-12-20T04:58:49;11.00;99.90
14401;DHT22;7285;50.894;5.462;2022-12-20T05:01:17;11.20;6.10
14401;DHT22;7285;50.894;5.462;2022-12-20T05:03:45;11.20;17.80
14401;DHT22;7285;50.894;5.462;2022-12-20T05:06:12;11.20;1.00
14401;DHT22;7285;50.894;5.462;2022-12-20T05:08:40;11.10;29.70
14401;DHT22;7285;50.894;5.462;2022-12-20T05:11:07;11.10;1.00
14401;DHT22;7285;50.894;5.462;2022-12-20T05:13:36;11.10;23.70
14401;DHT22;7285;50.894;5.462;2022-12-20T05:16:03;11.00;93.30
14401;DHT22;7285;50.894;5.462;2022-12-20T05:18:30;11.20;1.00
14401;DHT22;7285;50.894;5.462;2022-12-20T05:20:58;11.20;1.00
14401;DHT22;7285;50.894;5.462;2022-12-20T05:23:43;11.20;1.00
14401;DHT22;7285;50.894;5.462;2022-12-20T05:26:29;11.20;1.00
14401;DHT22;7285;50.894;5.462;2022-12-20T05:28:58;11.20;1.00
14401;DHT22;7285;50.894;5.462;2022-12-20T05:31:25;11.30;1.00
14401;DHT22;7285;50.894;5.462;2022-12-20T05:33:52;11.50;1.00
14401;DHT22;7285;50.894;5.462;2022-12-20T05:36:20;11.40;1.00
14401;DHT22;7285;50.894;5.462;2022-12-20T05:38:47;11.50;1.00
14401;DHT22;7285;50.894;5.462;2022-12-20T05:41:14;11.50;1.00
14401;DHT22;7285;50.894;5.462;2022-12-20T05:43:41;11.40;1.00
14401;DHT22;7285;50.894;5.462;2022-12-20T05:46:09;11.50;1.00
14401;DHT22;7285;50.894;5.462;2022-12-20T05:48:36;11.50;1.00
14401;DHT22;7285;50.894;5.462;2022-12-20T05:51:03;11.60;1.00
14401;DHT22;7285;50.894;5.462;2022-12-20T05:53:31;11.60;1.00
14401;DHT22;7285;50.894;5.462;2022-12-20T05:55:58;11.50;1.00
14401;DHT22;7285;50.894;5.462;2022-12-20T05:58:26;11.50;1.00
14401;DHT22;7285;50.894;5.462;2022-12-20T06:00:53;11.50;1.00
14401;DHT22;7285;50.894;5.462;2022-12-20T06:03:22;11.50;1.00
14401;DHT22;7285;50.894;5.462;2022-12-20T06:05:49;11.60;1.00
14401;DHT22;7285;50.894;5.462;2022-12-20T06:08:16;11.50;1.00
14401;DHT22;7285;50.894;5.462;2022-12-20T06:10:43;11.50;1.00
14401;DHT22;7285;50.894;5.462;2022-12-20T06:13:11;11.40;1.00
14401;DHT22;7285;50.894;5.462;2022-12-20T06:15:38;11.40;1.00
14401;DHT22;7285;50.894;5.462;2022-12-20T06:18:05;11.40;1.00
14401;DHT22;7285;50.894;5.462;2022-12-20T06:20:34;11.40;99.90
14401;DHT22;7285;50.894;5.462;2022-12-20T06:23:01;11.40;99.90
14401;DHT22;7285;50.894;5.462;2022-12-20T06:25:29;11.40;99.90
14401;DHT22;7285;50.894;5.462;2022-12-20T06:27:56;11.40;99.90
14401;DHT22;7285;50.894;5.462;2022-12-20T06:30:23;11.50;99.90
14401;DHT22;7285;50.894;5.462;2022-12-20T06:32:50;11.60;99.90
14401;DHT22;7285;50.894;5.462;2022-12-20T06:35:17;11.50;99.90
14401;DHT22;7285;50.894;5.462;2022-12-20T06:37:45;11.50;99.90
14401;DHT22;7285;50.894;5.462;2022-12-20T06:40:13;11.60;99.90
14401;DHT22;7285;50.894;5.462;2022-12-20T06:42:40;11.60;99.90
14401;DHT22;7285;50.894;5.462;2022-12-20T06:45:08;11.60;99.90
14401;DHT22;7285;50.894;5.462;2022-12-20T06:47:35;11.60;99.90
14401;DHT22;7285;50.894;5.462;2022-12-20T06:50:05;11.60;99.90
14401;DHT22;7285;50.894;5.462;2022-12-20T06:52:32;11.50;99.90
14401;DHT22;7285;50.894;5.462;2022-12-20T06:55:01;11.50;99.90
14401;DHT22;7285;50.894;5.462;2022-12-20T06:57:28;11.50;99.90
14401;DHT22;7285;50.894;5.462;2022-12-20T06:59:55;11.60;99.90
14401;DHT22;7285;50.894;5.462;2022-12-20T07:02:22;11.60;99.90
14401;DHT22;7285;50.894;5.462;2022-12-20T07:04:49;11.60;99.90
14401;DHT22;7285;50.894;5.462;2022-12-20T07:07:16;11.70;99.90
14401;DHT22;7285;50.894;5.462;2022-12-20T07:09:43;11.60;99.90
14401;DHT22;7285;50.894;5.462;2022-12-20T07:12:12;11.60;99.90
14401;DHT22;7285;50.894;5.462;2022-12-20T07:14:38;11.70;99.90
14401;DHT22;7285;50.894;5.462;2022-12-20T07:17:06;11.70;99.90
14401;DHT22;7285;50.894;5.462;2022-12-20T07:19:33;11.60;99.90
14401;DHT22;7285;50.894;5.462;2022-12-20T07:22:01;11.60;99.90
14401;DHT22;7285;50.894;5.462;2022-12-20T07:24:28;11.50;99.90
14401;DHT22;7285;50.894;5.462;2022-12-20T07:26:55;11.50;99.90
14401;DHT22;7285;50.894;5.462;2022-12-20T07:29:24;11.50;99.90
14401;DHT22;7285;50.894;5.462;2022-12-20T07:31:51;11.60;99.90
14401;DHT22;7285;50.894;5.462;2022-12-20T07:34:18;11.70;99.90
14401;DHT22;7285;50.894;5.462;2022-12-20T07:36:46;11.70;99.90
14401;DHT22;7285;50.894;5.462;2022-12-20T07:39:13;11.80;99.90
14401;DHT22;7285;50.894;5.462;2022-12-20T07:41:40;11.70;99.90
14401;DHT22;7285;50.894;5.462;2022-12-20T07:44:09;11.80;99.90
14401;DHT22;7285;50.894;5.462;2022-12-20T07:46:38;11.80;99.90
14401;DHT22;7285;50.894;5.462;2022-12-20T07:49:05;11.80;99.90
14401;DHT22;7285;50.894;5.462;2022-12-20T07:51:35;11.90;99.90
14401;DHT22;7285;50.894;5.462;2022-12-20T07:54:05;11.90;99.90
14401;DHT22;7285;50.894;5.462;2022-12-20T07:56:34;11.80;99.90
14401;DHT22;7285;50.894;5.462;2022-12-20T07:59:02;11.80;99.90
14401;DHT22;7285;50.894;5.462;2022-12-20T08:01:30;11.80;99.90
14401;DHT22;7285;50.894;5.462;2022-12-20T08:04:03;11.70;99.90
14401;DHT22;7285;50.894;5.462;2022-12-20T08:06:31;11.70;99.90
14401;DHT22;7285;50.894;5.462;2022-12-20T08:09:02;11.80;99.90
14401;DHT22;7285;50.894;5.462;2022-12-20T08:11:32;11.80;99.90
14401;DHT22;7285;50.894;5.462;2022-12-20T08:14:00;11.80;99.90
14401;DHT22;7285;50.894;5.462;2022-12-20T08:16:28;11.70;99.90
14401;DHT22;7285;50.894;5.462;2022-12-20T08:18:55;11.70;99.90
14401;DHT22;7285;50.894;5.462;2022-12-20T08:21:24;11.70;99.90
14401;DHT22;7285;50.894;5.462;2022-12-20T08:23:52;11.70;99.90
14401;DHT22;7285;50.894;5.462;2022-12-20T08:26:19;11.60;99.90
14401;DHT22;7285;50.894;5.462;2022-12-20T08:28:46;11.60;99.90
14401;DHT22;7285;50.894;5.462;2022-12-20T08:31:13;11.60;99.90
14401;DHT22;7285;50.894;5.462;2022-12-20T08:33:40;11.60;99.90
14401;DHT22;7285;50.894;5.462;2022-12-20T08:36:09;11.60;1.00
14401;DHT22;7285;50.894;5.462;2022-12-20T08:38:38;11.60;1.00
14401;DHT22;7285;50.894;5.462;2022-12-20T08:41:07;11.60;1.00
14401;DHT22;7285;50.894;5.462;2022-12-20T08:43:36;11.60;1.00
14401;DHT22;7285;50.894;5.462;2022-12-20T08:46:03;11.60;1.00
14401;DHT22;7285;50.894;5.462;2022-12-20T08:48:31;11.60;1.00
14401;DHT22;7285;50.894;5.462;2022-12-20T08:50:59;11.60;1.00
14401;DHT22;7285;50.894;5.462;2022-12-20T08:53:27;11.60;1.00
14401;DHT22;7285;50.894;5.462;2022-12-20T08:56:02;11.70;1.00
14401;DHT22;7285;50.894;5.462;2022-12-20T08:58:30;11.70;1.00
14401;DHT22;7285;50.894;5.462;2022-12-20T09:00:58;11.70;1.00
14401;DHT22;7285;50.894;5.462;2022-12-20T09:03:28;11.70;1.00
14401;DHT22;7285;50.894;5.462;2022-12-20T09:05:57;11.70;1.00
14401;DHT22;7285;50.894;5.462;2022-12-20T09:08:24;11.80;1.00
14401;DHT22;7285;50.894;5.462;2022-12-20T09:10:51;11.80;1.00
14401;DHT22;7285;50.894;5.462;2022-12-20T09:13:20;11.80;1.00
14401;DHT22;7285;50.894;5.462;2022-12-20T09:15:47;11.80;1.00
14401;DHT22;7285;50.894;5.462;2022-12-20T09:18:14;11.70;1.00
14401;DHT22;7285;50.894;5.462;2022-12-20T09:20:42;11.70;1.00
14401;DHT22;7285;50.894;5.462;2022-12-20T09:23:10;11.80;1.00
14401;DHT22;7285;50.894;5.462;2022-12-20T09:25:37;11.80;1.00
14401;DHT22;7285;50.894;5.462;2022-12-20T09:28:04;11.80;1.00
14401;DHT22;7285;50.894;5.462;2022-12-20T09:30:33;11.80;1.00
14401;DHT22;7285;50.894;5.462;2022-12-20T09:33:00;11.70;1.00
14401;DHT22;7285;50.894;5.462;2022-12-20T09:35:27;11.70;1.00
14401;DHT22;7285;50.894;5.462;2022-12-20T09:37:54;11.70;1.00
14401;DHT22;7285;50.894;5.462;2022-12-20T09:40:24;11.70;1.00
14401;DHT22;7285;50.894;5.462;2022-12-20T09:42:52;11.70;1.00
14401;DHT22;7285;50.894;5.462;2022-12-20T09:45:24;11.70;1.00
14401;DHT22;7285;50.894;5.462;2022-12-20T09:47:53;11.70;1.00
14401;DHT22;7285;50.894;5.462;2022-12-20T09:50:30;11.80;1.00
14401;DHT22;7285;50.894;5.462;2022-12-20T09:53:10;11.80;1.00
14401;DHT22;7285;50.894;5.462;2022-12-20T09:55:45;11.90;1.00
14401;DHT22;7285;50.894;5.462;2022-12-20T09:58:27;11.90;1.00
14401;DHT22;7285;50.894;5.462;2022-12-20T10:01:11;11.90;1.00
14401;DHT22;7285;50.894;5.462;2022-12-20T10:03:41;11.90;1.00
14401;DHT22;7285;50.894;5.462;2022-12-20T10:06:13;11.90;1.00
14401;DHT22;7285;50.894;5.462;2022-12-20T10:08:52;12.00;1.00
14401;DHT22;7285;50.894;5.462;2022-12-20T10:11:50;12.10;1.00
14401;DHT22;7285;50.894;5.462;2022-12-20T10:14:34;12.10;1.00
14401;DHT22;7285;50.894;5.462;2022-12-20T10:17:11;12.10;1.00
14401;DHT22;7285;50.894;5.462;2022-12-20T10:20:06;12.20;1.00
14401;DHT22;7285;50.894;5.462;2022-12-20T10:22:42;12.20;1.00
14401;DHT22;7285;50.894;5.462;2022-12-20T10:25:15;12.30;1.00
14401;DHT22;7285;50.894;5.462;2022-12-20T10:27:44;12.40;1.00
14401;DHT22;7285;50.894;5.462;2022-12-20T10:30:13;12.40;1.00
14401;DHT22;7285;50.894;5.462;2022-12-20T10:32:44;12.50;1.00
14401;DHT22;7285;50.894;5.462;2022-12-20T10:35:22;12.50;1.00
14401;DHT22;7285;50.894;5.462;2022-12-20T10:37:58;12.50;1.00
14401;DHT22;7285;50.894;5.462;2022-12-20T10:40:28;12.50;1.00
14401;DHT22;7285;50.894;5.462;2022-12-20T10:42:55;12.50;1.00
14401;DHT22;7285;50.894;5.462;2022-12-20T10:45:41;12.40;1.00
14401;DHT22;7285;50.894;5.462;2022-12-20T10:48:28;12.40;1.00
14401;DHT22;7285;50.894;5.462;2022-12-20T10:50:59;12.50;1.00
14401;DHT22;7285;50.894;5.462;2022-12-20T10:53:27;12.50;1.00
14401;DHT22;7285;50.894;5.462;2022-12-20T10:56:11;12.60;1.00
14401;DHT22;7285;50.894;5.462;2022-12-20T10:58:39;12.50;1.00
14401;DHT22;7285;50.894;5.462;2022-12-20T11:01:12;12.50;1.00
14401;DHT22;7285;50.894;5.462;2022-12-20T11:03:52;12.60;1.00
14401;DHT22;7285;50.894;5.462;2022-12-20T11:06:23;12.50;1.00
14401;DHT22;7285;50.894;5.462;2022-12-20T11:08:51;12.50;1.00
14401;DHT22;7285;50.894;5.462;2022-12-20T11:11:21;12.40;1.00
14401;DHT22;7285;50.894;5.462;2022-12-20T11:13:50;12.30;76.60
14401;DHT22;7285;50.894;5.462;2022-12-20T11:16:25;12.20;99.90
14401;DHT22;7285;50.894;5.462;2022-12-20T11:19:04;12.10;99.90
14401;DHT22;7285;50.894;5.462;2022-12-20T11:21:40;12.10;99.90
14401;DHT22;7285;50.894;5.462;2022-12-20T11:24:12;12.00;99.90
14401;DHT22;7285;50.894;5.462;2022-12-20T11:26:56;11.90;99.90
14401;DHT22;7285;50.894;5.462;2022-12-20T11:32:21;11.90;99.90
14401;DHT22;7285;50.894;5.462;2022-12-20T11:34:59;11.80;1.00
14401;DHT22;7285;50.894;5.462;2022-12-20T11:37:32;11.80;1.00
14401;DHT22;7285;50.894;5.462;2022-12-20T11:40:09;11.70;1.00
14401;DHT22;7285;50.894;5.462;2022-12-20T11:43:01;11.60;99.90
14401;DHT22;7285;50.894;5.462;2022-12-20T11:45:34;11.60;99.90
14401;DHT22;7285;50.894;5.462;2022-12-20T11:48:20;11.50;1.00
14401;DHT22;7285;50.894;5.462;2022-12-20T11:51:00;11.40;99.90
14401;DHT22;7285;50.894;5.462;2022-12-20T11:53:34;11.40;99.90
14401;DHT22;7285;50.894;5.462;2022-12-20T11:56:07;11.30;1.00
14401;DHT22;7285;50.894;5.462;2022-12-20T11:58:44;11.30;1.00
14401;DHT22;7285;50.894;5.462;2022-12-20T12:01:16;11.30;1.00
14401;DHT22;7285;50.894;5.462;2022-12-20T12:03:58;11.20;27.60
14401;DHT22;7285;50.894;5.462;2022-12-20T12:06:31;11.20;99.90
14401;DHT22;7285;50.894;5.462;2022-12-20T12:09:07;11.20;99.90
14401;DHT22;7285;50.894;5.462;2022-12-20T12:11:39;11.20;1.00
14401;DHT22;7285;50.894;5.462;2022-12-20T12:14:15;11.20;1.00
14401;DHT22;7285;50.894;5.462;2022-12-20T12:16:48;11.10;1.00
14401;DHT22;7285;50.894;5.462;2022-12-20T12:19:16;11.10;99.90
14401;DHT22;7285;50.894;5.462;2022-12-20T12:21:46;11.10;99.90
14401;DHT22;7285;50.894;5.462;2022-12-20T12:24:22;11.10;1.00
14401;DHT22;7285;50.894;5.462;2022-12-20T12:26:51;11.10;1.00
14401;DHT22;7285;50.894;5.462;2022-12-20T12:29:20;11.10;1.00
14401;DHT22;7285;50.894;5.462;2022-12-20T12:31:50;11.20;99.90
14401;DHT22;7285;50.894;5.462;2022-12-20T12:34:29;11.20;99.90
14401;DHT22;7285;50.894;5.462;2022-12-20T12:37:29;11.20;99.90
14401;DHT22;7285;50.894;5.462;2022-12-20T12:45:58;11.20;10.00
14401;DHT22;7285;50.894;5.462;2022-12-20T12:48:31;11.10;1.30
14401;DHT22;7285;50.894;5.462;2022-12-20T12:51:01;11.10;1.00
14401;DHT22;7285;50.894;5.462;2022-12-20T12:53:33;11.10;43.10
14401;DHT22;7285;50.894;5.462;2022-12-20T12:56:30;11.00;1.00
14401;DHT22;7285;50.894;5.462;2022-12-20T12:59:21;10.90;32.50
14401;DHT22;7285;50.894;5.462;2022-12-20T13:01:50;10.90;1.00
14401;DHT22;7285;50.894;5.462;2022-12-20T13:04:25;10.80;99.90
14401;DHT22;7285;50.894;5.462;2022-12-20T13:07:03;10.80;1.00
14401;DHT22;7285;50.894;5.462;2022-12-20T13:09:49;10.70;1.00
14401;DHT22;7285;50.894;5.462;2022-12-20T13:12:54;10.70;1.00
14401;DHT22;7285;50.894;5.462;2022-12-20T13:15:47;10.70;99.90
14401;DHT22;7285;50.894;5.462;2022-12-20T13:18:27;10.70;1.00
14401;DHT22;7285;50.894;5.462;2022-12-20T13:27:22;10.60;1.00
14401;DHT22;7285;50.894;5.462;2022-12-20T13:29:55;10.50;1.00
14401;DHT22;7285;50.894;5.462;2022-12-20T13:32:54;10.50;1.00
14401;DHT22;7285;50.894;5.462;2022-12-20T13:35:29;10.50;99.90
14401;DHT22;7285;50.894;5.462;2022-12-20T13:37:58;10.50;1.00
14401;DHT22;7285;50.894;5.462;2022-12-20T13:40:34;10.40;1.00
14401;DHT22;7285;50.894;5.462;2022-12-20T13:43:05;10.40;1.00
14401;DHT22;7285;50.894;5.462;2022-12-20T13:45:37;10.40;1.00
14401;DHT22;7285;50.894;5.462;2022-12-20T13:48:05;10.40;1.00
14401;DHT22;7285;50.894;5.462;2022-12-20T13:50:35;10.40;1.00
14401;DHT22;7285;50.894;5.462;2022-12-20T13:53:06;10.40;99.90
14401;DHT22;7285;50.894;5.462;2022-12-20T13:55:41;10.40;99.90
14401;DHT22;7285;50.894;5.462;2022-12-20T13:58:12;10.40;99.90
14401;DHT22;7285;50.894;5.462;2022-12-20T14:00:43;10.40;1.00
14401;DHT22;7285;50.894;5.462;2022-12-20T14:03:20;10.40;99.90
14401;DHT22;7285;50.894;5.462;2022-12-20T14:05:48;10.40;1.00
14401;DHT22;7285;50.894;5.462;2022-12-20T14:08:20;10.40;1.00
14401;DHT22;7285;50.894;5.462;2022-12-20T14:10:51;10.40;1.00
14401;DHT22;7285;50.894;5.462;2022-12-20T14:13:20;10.30;1.00
14401;DHT22;7285;50.894;5.462;2022-12-20T14:15:49;10.30;1.00
14401;DHT22;7285;50.894;5.462;2022-12-20T14:18:18;10.40;1.00
14401;DHT22;7285;50.894;5.462;2022-12-20T14:20:47;10.30;1.00
14401;DHT22;7285;50.894;5.462;2022-12-20T14:23:17;10.30;99.90
14401;DHT22;7285;50.894;5.462;2022-12-20T14:25:50;10.30;1.00
14401;DHT22;7285;50.894;5.462;2022-12-20T14:28:29;10.40;1.00
14401;DHT22;7285;50.894;5.462;2022-12-20T14:30:59;10.30;1.00
14401;DHT22;7285;50.894;5.462;2022-12-20T14:33:34;10.40;1.00
14401;DHT22;7285;50.894;5.462;2022-12-20T14:36:17;10.40;1.00
14401;DHT22;7285;50.894;5.462;2022-12-20T14:38:47;10.40;1.00
14401;DHT22;7285;50.894;5.462;2022-12-20T14:41:32;10.40;1.00
14401;DHT22;7285;50.894;5.462;2022-12-20T14:44:02;10.40;1.00
14401;DHT22;7285;50.894;5.462;2022-12-20T14:46:33;10.40;1.00
14401;DHT22;7285;50.894;5.462;2022-12-20T14:49:10;10.30;1.00
14401;DHT22;7285;50.894;5.462;2022-12-20T14:51:39;10.40;1.00
14401;DHT22;7285;50.894;5.462;2022-12-20T14:54:11;10.40;1.00
14401;DHT22;7285;50.894;5.462;2022-12-20T14:56:45;10.40;1.00
14401;DHT22;7285;50.894;5.462;2022-12-20T14:59:14;10.50;1.00
14401;DHT22;7285;50.894;5.462;2022-12-20T15:01:43;10.40;99.90
14401;DHT22;7285;50.894;5.462;2022-12-20T15:04:24;10.40;99.90
14401;DHT22;7285;50.894;5.462;2022-12-20T15:06:55;10.40;99.90
14401;DHT22;7285;50.894;5.462;2022-12-20T15:09:23;10.40;99.90
14401;DHT22;7285;50.894;5.462;2022-12-20T15:11:50;10.50;99.90
14401;DHT22;7285;50.894;5.462;2022-12-20T15:14:25;10.50;99.90
14401;DHT22;7285;50.894;5.462;2022-12-20T15:16:55;10.40;99.90
14401;DHT22;7285;50.894;5.462;2022-12-20T15:19:22;10.50;99.90
14401;DHT22;7285;50.894;5.462;2022-12-20T15:21:53;10.50;17.90
14401;DHT22;7285;50.894;5.462;2022-12-20T15:24:23;10.50;1.00
14401;DHT22;7285;50.894;5.462;2022-12-20T15:26:51;10.40;1.00
14401;DHT22;7285;50.894;5.462;2022-12-20T15:29:20;10.50;1.00
14401;DHT22;7285;50.894;5.462;2022-12-20T15:31:49;10.50;1.00
14401;DHT22;7285;50.894;5.462;2022-12-20T15:34:23;10.50;1.00
14401;DHT22;7285;50.894;5.462;2022-12-20T15:36:52;10.40;1.00
14401;DHT22;7285;50.894;5.462;2022-12-20T15:39:19;10.40;69.00
14401;DHT22;7285;50.894;5.462;2022-12-20T15:41:48;10.40;99.90
14401;DHT22;7285;50.894;5.462;2022-12-20T15:44:16;10.40;99.90
14401;DHT22;7285;50.894;5.462;2022-12-20T15:46:44;10.40;99.90
14401;DHT22;7285;50.894;5.462;2022-12-20T15:49:14;10.30;1.00
14401;DHT22;7285;50.894;5.462;2022-12-20T15:51:43;10.40;1.00
14401;DHT22;7285;50.894;5.462;2022-12-20T15:54:19;10.30;1.00
14401;DHT22;7285;50.894;5.462;2022-12-20T15:56:47;10.30;1.00
14401;DHT22;7285;50.894;5.462;2022-12-20T15:59:14;10.30;1.00
14401;DHT22;7285;50.894;5.462;2022-12-20T16:01:41;10.30;1.00
14401;DHT22;7285;50.894;5.462;2022-12-20T16:04:14;10.20;3.30
14401;DHT22;7285;50.894;5.462;2022-12-20T16:06:43;10.20;16.20
14401;DHT22;7285;50.894;5.462;2022-12-20T16:09:10;10.20;97.40
14401;DHT22;7285;50.894;5.462;2022-12-20T16:11:38;10.20;99.90
14401;DHT22;7285;50.894;5.462;2022-12-20T16:14:05;10.20;99.90
14401;DHT22;7285;50.894;5.462;2022-12-20T16:16:35;10.10;99.90
14401;DHT22;7285;50.894;5.462;2022-12-20T16:19:02;10.20;99.90
14401;DHT22;7285;50.894;5.462;2022-12-20T16:21:31;10.20;1.00
14401;DHT22;7285;50.894;5.462;2022-12-20T16:24:00;10.10;1.00
14401;DHT22;7285;50.894;5.462;2022-12-20T16:26:27;10.10;1.00
14401;DHT22;7285;50.894;5.462;2022-12-20T16:28:55;10.10;1.00
14401;DHT22;7285;50.894;5.462;2022-12-20T16:31:24;10.10;1.00
14401;DHT22;7285;50.894;5.462;2022-12-20T16:33:52;10.20;1.00